createdAt,value
2023-05-14T00:01:23.779Z,9.23
2023-05-14T00:03:50.437Z,9.48
2023-05-14T00:06:16.901Z,8.98
2023-05-14T00:08:43.302Z,8.98
2023-05-14T00:11:09.698Z,10.25
2023-05-14T00:13:36.521Z,9.95
2023-05-14T00:16:02.996Z,9.50
2023-05-14T00:18:29.548Z,9.43
2023-05-14T00:20:56.136Z,9.85
2023-05-14T00:23:22.778Z,8.73
2023-05-14T00:25:49.921Z,9.55
2023-05-14T00:28:16.528Z,8.40
2023-05-14T00:30:42.933Z,10.18
2023-05-14T00:33:09.455Z,9.18
2023-05-14T00:35:35.996Z,9.57
2023-05-14T00:38:03.788Z,10.52
2023-05-14T00:40:30.639Z,8.60
2023-05-14T00:42:57.135Z,10.10
2023-05-14T00:45:23.605Z,9.82
2023-05-14T00:47:50.250Z,9.95
2023-05-14T00:50:17.910Z,9.35
2023-05-14T00:52:44.577Z,9.32
2023-05-14T00:55:16.259Z,9.90
2023-05-14T00:57:42.996Z,9.65
2023-05-14T01:00:09.972Z,7.75
2023-05-14T01:02:36.589Z,9.30
2023-05-14T01:05:03.661Z,9.60
2023-05-14T01:07:39.115Z,9.20
2023-05-14T01:10:15.028Z,10.23
2023-05-14T01:13:08.239Z,8.50
2023-05-14T01:15:37.521Z,9.60
2023-05-14T01:18:09.471Z,9.30
2023-05-14T01:20:36.589Z,9.55
2023-05-14T01:23:03.551Z,9.63
2023-05-14T01:25:31.406Z,9.07
2023-05-14T01:28:09.084Z,8.95
2023-05-14T01:30:37.548Z,8.88
2023-05-14T01:33:10.032Z,7.78
2023-05-14T01:35:37.197Z,8.40
2023-05-14T01:38:06.735Z,8.95
2023-05-14T01:40:34.546Z,7.97
2023-05-14T01:43:01.853Z,9.82
2023-05-14T01:45:28.264Z,8.20
2023-05-14T01:47:54.700Z,9.57
2023-05-14T01:50:21.430Z,9.02
2023-05-14T01:52:53.369Z,8.70
2023-05-14T01:55:19.864Z,9.35
2023-05-14T01:57:46.234Z,9.85
2023-05-14T02:00:12.986Z,9.13
2023-05-14T02:02:39.383Z,9.38
2023-05-14T02:05:07.032Z,10.23
2023-05-14T02:07:33.706Z,8.15
2023-05-14T02:10:00.135Z,8.07
2023-05-14T02:12:26.660Z,9.15
2023-05-14T02:14:53.085Z,9.18
2023-05-14T02:17:20.027Z,9.05
2023-05-14T02:19:46.543Z,8.45
2023-05-14T02:22:13.367Z,9.77
2023-05-14T02:24:39.754Z,9.32
2023-05-14T02:27:06.289Z,9.20
2023-05-14T02:29:32.782Z,8.63
2023-05-14T02:31:59.192Z,8.43
2023-05-14T02:34:25.970Z,9.73
2023-05-14T02:36:52.371Z,8.75
2023-05-14T02:39:18.737Z,9.10
2023-05-14T02:41:45.121Z,9.00
2023-05-14T02:44:11.485Z,9.57
2023-05-14T02:46:37.931Z,9.68
2023-05-14T02:49:04.334Z,8.65
2023-05-14T02:51:30.783Z,8.93
2023-05-14T02:53:57.210Z,8.73
2023-05-14T02:56:23.616Z,8.98
2023-05-14T02:58:50.042Z,8.48
2023-05-14T03:01:16.805Z,8.77
2023-05-14T03:03:43.715Z,10.30
2023-05-14T03:06:10.458Z,8.38
2023-05-14T03:08:36.854Z,9.80
2023-05-14T03:11:03.484Z,9.55
2023-05-14T03:13:29.885Z,8.90
2023-05-14T03:15:56.816Z,8.27
2023-05-14T03:18:23.209Z,8.90
2023-05-14T03:20:49.548Z,8.98
2023-05-14T03:23:15.904Z,8.63
2023-05-14T03:25:42.294Z,8.02
2023-05-14T03:28:08.828Z,10.05
2023-05-14T03:30:35.410Z,8.75
2023-05-14T03:33:01.899Z,9.30
2023-05-14T03:35:28.300Z,9.60
2023-05-14T03:37:54.702Z,9.82
2023-05-14T03:40:21.446Z,8.82
2023-05-14T03:42:48.168Z,8.68
2023-05-14T03:45:14.553Z,9.50
2023-05-14T03:47:41.399Z,8.98
2023-05-14T03:50:08.780Z,9.75
2023-05-14T03:52:35.436Z,9.23
2023-05-14T03:55:01.905Z,9.27
2023-05-14T03:57:28.594Z,9.30
2023-05-14T03:59:54.940Z,9.90
2023-05-14T04:02:21.418Z,9.40
2023-05-14T04:04:47.990Z,9.32
2023-05-14T04:07:14.427Z,8.82
2023-05-14T04:09:40.851Z,8.85
2023-05-14T04:12:07.728Z,9.55
2023-05-14T04:14:34.137Z,9.27
2023-05-14T04:17:00.667Z,8.82
2023-05-14T04:19:27.053Z,9.15
2023-05-14T04:21:53.427Z,8.80
2023-05-14T04:24:19.812Z,8.82
2023-05-14T04:26:46.296Z,8.60
2023-05-14T04:29:12.710Z,8.70
2023-05-14T04:31:39.683Z,9.30
2023-05-14T04:34:06.091Z,9.05
2023-05-14T04:36:32.557Z,7.47
2023-05-14T04:38:58.921Z,8.75
2023-05-14T04:41:25.400Z,7.85
2023-05-14T04:43:55.345Z,8.80
2023-05-14T04:46:22.253Z,7.88
2023-05-14T04:48:49.038Z,7.80
2023-05-14T04:51:15.429Z,8.18
2023-05-14T04:53:41.798Z,7.97
2023-05-14T04:56:08.222Z,8.05
2023-05-14T04:58:35.260Z,7.28
2023-05-14T05:01:03.218Z,7.50
2023-05-14T05:03:29.820Z,7.82
2023-05-14T05:05:56.312Z,7.45
2023-05-14T05:08:22.962Z,6.93
2023-05-14T05:10:49.404Z,7.88
2023-05-14T05:13:16.965Z,7.50
2023-05-14T05:15:43.736Z,7.20
2023-05-14T05:18:10.204Z,7.18
2023-05-14T05:20:36.553Z,8.27
2023-05-14T05:23:02.884Z,7.43
2023-05-14T05:25:29.216Z,7.70
2023-05-14T05:27:55.641Z,6.85
2023-05-14T05:30:22.218Z,7.70
2023-05-14T05:32:48.960Z,6.80
2023-05-14T05:35:15.369Z,8.07
2023-05-14T05:37:42.900Z,8.38
2023-05-14T05:40:10.271Z,7.43
2023-05-14T05:42:36.597Z,6.82
2023-05-14T05:45:03.128Z,6.70
2023-05-14T05:47:30.126Z,7.53
2023-05-14T05:49:56.857Z,7.38
2023-05-14T05:52:23.431Z,8.13
2023-05-14T05:54:49.927Z,7.43
2023-05-14T05:57:16.321Z,7.60
2023-05-14T05:59:43.348Z,7.15
2023-05-14T06:02:09.718Z,7.35
2023-05-14T06:04:36.128Z,6.80
2023-05-14T06:07:02.588Z,6.68
2023-05-14T06:09:28.968Z,8.25
2023-05-14T06:11:55.424Z,7.93
2023-05-14T06:14:21.803Z,7.65
2023-05-14T06:16:48.163Z,7.65
2023-05-14T06:19:14.662Z,6.53
2023-05-14T06:21:41.070Z,8.40
2023-05-14T06:24:07.656Z,7.78
2023-05-14T06:26:34.074Z,7.07
2023-05-14T06:29:00.436Z,7.78
2023-05-14T06:31:26.880Z,7.15
2023-05-14T06:33:53.255Z,8.00
2023-05-14T06:36:19.656Z,7.43
2023-05-14T06:38:46.092Z,7.65
2023-05-14T06:41:12.530Z,6.68
2023-05-14T06:43:38.938Z,6.07
2023-05-14T06:46:05.389Z,6.63
2023-05-14T06:48:31.864Z,6.70
2023-05-14T06:50:58.317Z,6.70
2023-05-14T06:53:24.750Z,7.38
2023-05-14T06:55:51.261Z,7.00
2023-05-14T06:58:17.803Z,7.32
2023-05-14T07:00:44.140Z,6.45
2023-05-14T07:03:10.526Z,7.15
2023-05-14T07:05:36.902Z,6.93
2023-05-14T07:08:03.372Z,6.10
2023-05-14T07:10:30.842Z,6.45
2023-05-14T07:12:57.253Z,6.75
2023-05-14T07:15:23.625Z,6.88
2023-05-14T07:17:50.135Z,6.65
2023-05-14T07:20:16.600Z,5.57
2023-05-14T07:22:42.934Z,6.43
2023-05-14T07:25:09.472Z,6.00
2023-05-14T07:27:35.904Z,5.68
2023-05-14T07:30:02.387Z,5.60
2023-05-14T07:32:28.804Z,6.47
2023-05-14T07:34:55.929Z,6.63
2023-05-14T07:37:24.047Z,7.20
2023-05-14T07:39:51.028Z,7.45
2023-05-14T07:42:31.814Z,6.85
2023-05-14T07:45:02.117Z,6.53
2023-05-14T07:47:29.418Z,6.72
2023-05-14T07:49:56.849Z,7.32
2023-05-14T07:52:23.883Z,7.32
2023-05-14T07:54:51.928Z,8.18
2023-05-14T07:57:19.381Z,7.93
2023-05-14T07:59:46.298Z,7.93
2023-05-14T08:02:12.946Z,6.50
2023-05-14T08:04:39.879Z,7.07
2023-05-14T08:07:08.385Z,7.78
2023-05-14T08:09:34.897Z,7.97
2023-05-14T08:12:01.455Z,8.98
2023-05-14T08:14:28.454Z,7.60
2023-05-14T08:16:54.886Z,7.25
2023-05-14T08:19:21.718Z,7.68
2023-05-14T08:21:48.207Z,7.50
2023-05-14T08:24:15.054Z,7.97
2023-05-14T08:26:41.948Z,7.95
2023-05-14T08:29:10.498Z,7.93
2023-05-14T08:31:37.334Z,8.18
2023-05-14T08:34:03.735Z,7.25
2023-05-14T08:36:30.214Z,7.35
2023-05-14T08:38:56.561Z,6.88
2023-05-14T08:41:23.321Z,7.43
2023-05-14T08:43:58.258Z,6.57
2023-05-14T08:46:25.205Z,6.10
2023-05-14T08:48:59.606Z,6.80
2023-05-14T08:51:27.633Z,7.55
2023-05-14T08:53:54.228Z,6.60
2023-05-14T08:56:21.564Z,6.75
2023-05-14T08:58:48.004Z,6.70
2023-05-14T09:01:14.531Z,6.55
2023-05-14T09:03:41.649Z,6.55
2023-05-14T09:06:08.825Z,5.65
2023-05-14T09:08:36.293Z,6.10
2023-05-14T09:11:02.758Z,6.00
2023-05-14T09:13:29.186Z,6.20
2023-05-14T09:15:56.508Z,6.18
2023-05-14T09:18:23.041Z,6.05
2023-05-14T09:20:49.465Z,6.55
2023-05-14T09:23:15.791Z,5.82
2023-05-14T09:25:42.400Z,5.30
2023-05-14T09:28:09.561Z,6.18
2023-05-14T09:30:36.988Z,5.93
2023-05-14T09:33:04.242Z,5.97
2023-05-14T09:35:32.288Z,5.90
2023-05-14T09:37:58.687Z,6.43
2023-05-14T09:40:25.398Z,6.00
2023-05-14T09:42:52.066Z,5.28
2023-05-14T09:45:18.535Z,6.13
2023-05-14T09:47:45.408Z,5.78
2023-05-14T09:50:12.350Z,6.78
2023-05-14T09:52:39.142Z,5.57
2023-05-14T09:55:06.304Z,6.38
2023-05-14T09:57:33.457Z,5.47
2023-05-14T09:59:59.816Z,6.00
2023-05-14T10:02:31.238Z,5.07
2023-05-14T10:05:02.464Z,5.57
2023-05-14T10:07:42.535Z,5.22
2023-05-14T10:10:13.633Z,5.35
2023-05-14T10:12:40.721Z,6.22
2023-05-14T10:15:16.729Z,6.13
2023-05-14T10:17:48.550Z,5.53
2023-05-14T10:20:18.534Z,5.85
2023-05-14T10:22:45.401Z,5.25
2023-05-14T10:25:12.177Z,5.95
2023-05-14T10:27:39.362Z,5.93
2023-05-14T10:30:12.299Z,6.88
2023-05-14T10:32:41.625Z,5.63
2023-05-14T10:35:20.368Z,5.65
2023-05-14T10:37:47.005Z,4.57
2023-05-14T10:40:14.077Z,5.68
2023-05-14T10:42:43.260Z,5.07
2023-05-14T10:45:15.137Z,4.82
2023-05-14T10:47:43.593Z,4.55
2023-05-14T10:50:12.733Z,5.00
2023-05-14T10:52:42.517Z,5.35
2023-05-14T10:55:10.735Z,4.97
2023-05-14T10:57:39.410Z,5.82
2023-05-14T11:00:07.758Z,4.80
2023-05-14T11:02:44.882Z,4.38
2023-05-14T11:05:15.515Z,4.97
2023-05-14T11:07:47.146Z,4.55
2023-05-14T11:10:15.656Z,5.25
2023-05-14T11:12:44.890Z,4.93
2023-05-14T11:15:14.099Z,4.80
2023-05-14T11:17:42.043Z,4.65
2023-05-14T11:20:09.385Z,4.03
2023-05-14T11:22:36.792Z,4.18
2023-05-14T11:25:03.698Z,4.70
2023-05-14T11:27:33.265Z,4.85
2023-05-14T11:30:00.941Z,4.45
2023-05-14T11:32:27.868Z,4.40
2023-05-14T11:34:54.302Z,4.22
2023-05-14T11:37:21.019Z,4.07
2023-05-14T11:39:49.310Z,4.13
2023-05-14T11:42:18.499Z,4.60
2023-05-14T11:44:47.520Z,4.78
2023-05-14T11:47:13.920Z,4.30
2023-05-14T11:49:40.365Z,4.57
2023-05-14T11:52:10.940Z,4.78
2023-05-14T11:54:37.825Z,4.53
2023-05-14T11:57:09.800Z,4.45
2023-05-14T11:59:36.857Z,4.10
2023-05-14T12:02:06.869Z,3.97
2023-05-14T12:04:33.511Z,4.30
2023-05-14T12:07:00.418Z,4.55
2023-05-14T12:09:27.002Z,4.30
2023-05-14T12:11:53.449Z,4.15
2023-05-14T12:14:24.298Z,3.80
2023-05-14T12:16:51.494Z,3.88
2023-05-14T12:19:19.375Z,3.83
2023-05-14T12:21:48.047Z,3.42
2023-05-14T12:24:17.668Z,3.47
2023-05-14T12:26:45.737Z,3.92
2023-05-14T12:29:13.816Z,4.00
2023-05-14T12:31:48.618Z,4.30
2023-05-14T12:34:15.928Z,3.72
2023-05-14T12:36:43.377Z,3.65
2023-05-14T12:39:10.821Z,3.38
2023-05-14T12:41:37.182Z,3.20
2023-05-14T12:44:04.982Z,3.95
2023-05-14T12:46:32.909Z,3.85
2023-05-14T12:48:59.397Z,3.05
2023-05-14T12:51:25.898Z,3.53
2023-05-14T12:53:54.091Z,3.33
2023-05-14T12:56:21.258Z,3.95
2023-05-14T12:58:47.756Z,3.40
2023-05-14T13:01:14.173Z,3.97
2023-05-14T13:03:41.074Z,3.70
2023-05-14T13:06:07.914Z,3.80
2023-05-14T13:08:35.354Z,3.70
2023-05-14T13:11:01.725Z,3.58
2023-05-14T13:13:28.201Z,4.38
2023-05-14T13:15:55.476Z,4.03
2023-05-14T13:18:21.895Z,3.75
2023-05-14T13:20:48.416Z,4.03
2023-05-14T13:23:15.046Z,4.10
2023-05-14T13:25:41.462Z,3.95
2023-05-14T13:28:08.558Z,3.80
2023-05-14T13:30:35.008Z,3.70
2023-05-14T13:33:01.675Z,3.40
2023-05-14T13:35:28.165Z,3.85
2023-05-14T13:37:54.553Z,3.55
2023-05-14T13:40:21.176Z,3.50
2023-05-14T13:42:47.583Z,3.70
2023-05-14T13:45:14.014Z,3.65
2023-05-14T13:47:40.553Z,4.00
2023-05-14T13:50:07.461Z,3.88
2023-05-14T13:52:33.899Z,3.50
2023-05-14T13:55:00.285Z,3.40
2023-05-14T13:57:26.931Z,3.90
2023-05-14T13:59:53.364Z,3.47
2023-05-14T14:02:19.810Z,3.90
2023-05-14T14:04:46.232Z,3.63
2023-05-14T14:07:12.584Z,3.78
2023-05-14T14:09:38.981Z,3.83
2023-05-14T14:12:06.025Z,3.53
2023-05-14T14:14:32.549Z,3.88
2023-05-14T14:16:58.884Z,2.90
2023-05-14T14:19:25.443Z,3.60
2023-05-14T14:21:51.889Z,3.72
2023-05-14T14:24:18.319Z,3.17
2023-05-14T14:26:44.661Z,3.17
2023-05-14T14:29:11.086Z,3.50
2023-05-14T14:31:37.506Z,3.28
2023-05-14T14:34:04.041Z,3.70
2023-05-14T14:36:31.592Z,3.30
2023-05-14T14:38:57.966Z,3.42
2023-05-14T14:41:24.500Z,3.33
2023-05-14T14:43:50.938Z,3.40
2023-05-14T14:46:17.310Z,3.80
2023-05-14T14:48:43.960Z,3.40
2023-05-14T14:51:10.431Z,3.20
2023-05-14T14:53:37.230Z,3.30
2023-05-14T14:56:03.886Z,3.78
2023-05-14T14:58:31.012Z,3.88
2023-05-14T15:00:58.231Z,4.03
2023-05-14T15:03:25.570Z,4.10
2023-05-14T15:05:53.592Z,3.97
2023-05-14T15:08:20.854Z,3.90
2023-05-14T15:10:47.295Z,4.13
2023-05-14T15:13:13.708Z,3.85
2023-05-14T15:15:40.165Z,4.10
2023-05-14T15:18:06.698Z,4.00
2023-05-14T15:20:33.208Z,4.30
2023-05-14T15:22:59.629Z,4.00
2023-05-14T15:25:26.717Z,4.15
2023-05-14T15:27:53.458Z,3.60
2023-05-14T15:30:20.213Z,4.05
2023-05-14T15:32:46.824Z,3.83
2023-05-14T15:35:13.378Z,4.05
2023-05-14T15:37:42.968Z,3.42
2023-05-14T15:40:10.453Z,4.03
2023-05-14T15:42:38.433Z,3.20
2023-05-14T15:45:05.597Z,4.05
2023-05-14T15:47:32.328Z,4.10
2023-05-14T15:49:59.237Z,3.90
2023-05-14T15:52:25.873Z,3.70
2023-05-14T15:54:52.417Z,4.28
2023-05-14T15:57:20.006Z,4.65
2023-05-14T15:59:47.294Z,4.35
2023-05-14T16:02:15.081Z,3.90
2023-05-14T16:04:41.542Z,3.95
2023-05-14T16:07:12.131Z,4.65
2023-05-14T16:09:39.159Z,4.53
2023-05-14T16:12:06.676Z,4.00
2023-05-14T16:14:34.611Z,3.28
2023-05-14T16:17:01.990Z,3.63
2023-05-14T16:19:28.612Z,3.97
2023-05-14T16:21:55.068Z,3.85
2023-05-14T16:24:23.620Z,3.83
2023-05-14T16:26:50.033Z,4.60
2023-05-14T16:29:16.422Z,4.07
2023-05-14T16:31:43.300Z,4.90
2023-05-14T16:34:09.762Z,4.50
2023-05-14T16:36:36.393Z,4.35
2023-05-14T16:41:32.330Z,4.72
2023-05-14T16:43:58.760Z,4.20
2023-05-14T16:46:25.401Z,4.18
2023-05-14T16:48:51.778Z,3.97
2023-05-14T16:51:18.175Z,4.10
2023-05-14T16:53:44.624Z,3.97
2023-05-14T16:56:11.062Z,3.67
2023-05-14T16:58:37.529Z,3.88
2023-05-14T17:01:03.998Z,5.50
2023-05-14T17:03:30.594Z,5.15
2023-05-14T17:05:56.957Z,4.13
2023-05-14T17:08:23.309Z,4.47
2023-05-14T17:10:49.719Z,4.45
2023-05-14T17:13:16.228Z,4.68
2023-05-14T17:15:42.653Z,4.45
2023-05-14T17:18:09.176Z,6.22
2023-05-14T17:20:35.601Z,5.00
2023-05-14T17:23:02.018Z,5.63
2023-05-14T17:25:28.414Z,5.40
2023-05-14T17:27:54.873Z,6.07
2023-05-14T17:30:21.353Z,5.65
2023-05-14T17:32:50.288Z,5.43
2023-05-14T17:35:17.433Z,6.03
2023-05-14T17:37:46.758Z,5.80
2023-05-14T17:40:13.347Z,5.97
2023-05-14T17:42:39.764Z,6.53
2023-05-14T17:45:06.892Z,6.35
2023-05-14T17:47:33.286Z,6.15
2023-05-14T17:49:59.806Z,5.80
2023-05-14T17:52:26.238Z,6.05
2023-05-14T17:54:52.586Z,5.65
2023-05-14T17:57:18.998Z,5.53
2023-05-14T17:59:45.324Z,5.97
2023-05-14T18:02:11.705Z,6.00
2023-05-14T18:04:38.096Z,5.50
2023-05-14T18:07:04.727Z,6.07
2023-05-14T18:09:31.083Z,5.93
2023-05-14T18:11:57.597Z,6.10
2023-05-14T18:14:24.061Z,5.85
2023-05-14T18:16:54.453Z,5.75
2023-05-14T18:19:20.875Z,5.60
2023-05-14T18:21:48.094Z,5.65
2023-05-14T18:24:14.591Z,5.55
2023-05-14T18:26:41.045Z,5.70
2023-05-14T18:29:07.394Z,5.88
2023-05-14T18:31:33.917Z,5.93
2023-05-14T18:34:00.398Z,6.63
2023-05-14T18:36:26.856Z,4.85
2023-05-14T18:38:53.333Z,6.32
2023-05-14T18:41:19.775Z,5.15
2023-05-14T18:43:46.210Z,5.68
2023-05-14T18:46:12.700Z,5.68
2023-05-14T18:48:39.261Z,7.25
2023-05-14T18:51:05.668Z,4.93
2023-05-14T18:53:32.064Z,5.50
2023-05-14T18:56:04.342Z,5.32
2023-05-14T18:58:30.766Z,5.15
2023-05-14T19:00:58.929Z,5.30
2023-05-14T19:03:25.937Z,5.20
2023-05-14T19:05:53.662Z,4.90
2023-05-14T19:08:20.131Z,5.15
2023-05-14T19:10:46.684Z,5.38
2023-05-14T19:13:13.149Z,5.22
2023-05-14T19:15:39.627Z,5.88
2023-05-14T19:18:06.282Z,5.68
2023-05-14T19:20:32.721Z,5.32
2023-05-14T19:22:59.064Z,5.60
2023-05-14T19:25:25.678Z,6.10
2023-05-14T19:27:53.546Z,5.97
2023-05-14T19:30:21.531Z,5.75
2023-05-14T19:32:47.964Z,5.85
2023-05-14T19:35:14.455Z,6.05
2023-05-14T19:37:40.984Z,5.93
2023-05-14T19:40:07.942Z,5.75
2023-05-14T19:42:34.443Z,6.15
2023-05-14T19:45:00.912Z,5.25
2023-05-14T19:47:28.474Z,5.40
2023-05-14T19:49:55.014Z,4.93
2023-05-14T19:52:21.424Z,5.35
2023-05-14T19:54:47.827Z,5.65
2023-05-14T19:57:14.172Z,4.97
2023-05-14T19:59:41.377Z,5.47
2023-05-14T20:02:07.890Z,5.53
2023-05-14T20:04:34.812Z,4.80
2023-05-14T20:07:01.504Z,4.97
2023-05-14T20:09:27.850Z,5.68
2023-05-14T20:11:54.256Z,5.15
2023-05-14T20:14:20.701Z,6.22
2023-05-14T20:16:48.742Z,6.20
2023-05-14T20:19:16.216Z,5.53
2023-05-14T20:21:42.860Z,5.50
2023-05-14T20:24:09.190Z,5.60
2023-05-14T20:26:35.764Z,6.00
2023-05-14T20:29:02.109Z,5.72
2023-05-14T20:31:28.700Z,6.28
2023-05-14T20:33:55.374Z,5.93
2023-05-14T20:36:22.236Z,5.63
2023-05-14T20:38:48.715Z,5.22
2023-05-14T20:41:15.357Z,5.72
2023-05-14T20:43:41.690Z,5.88
2023-05-14T20:46:08.990Z,4.75
2023-05-14T20:48:35.538Z,5.63
2023-05-14T20:51:04.690Z,5.25
2023-05-14T20:53:31.092Z,5.53
2023-05-14T20:55:58.869Z,5.82
2023-05-14T20:58:25.421Z,5.40
2023-05-14T21:00:51.835Z,5.82
2023-05-14T21:03:18.444Z,5.70
2023-05-14T21:05:44.870Z,6.03
2023-05-14T21:08:11.281Z,6.03
2023-05-14T21:10:37.732Z,5.75
2023-05-14T21:13:07.352Z,5.45
2023-05-14T21:15:33.864Z,5.90
2023-05-14T21:18:01.823Z,5.80
2023-05-14T21:20:28.229Z,5.70
2023-05-14T21:22:54.604Z,5.78
2023-05-14T21:25:21.025Z,5.18
2023-05-14T21:27:47.405Z,5.60
2023-05-14T21:30:14.087Z,4.88
2023-05-14T21:32:40.485Z,5.63
2023-05-14T21:35:07.413Z,5.00
2023-05-14T21:37:33.774Z,5.30
2023-05-14T21:40:00.244Z,5.28
2023-05-14T21:42:26.626Z,4.75
2023-05-14T21:44:53.024Z,4.80
2023-05-14T21:47:20.983Z,5.00
2023-05-14T21:49:47.337Z,5.10
2023-05-14T21:52:14.069Z,5.78
2023-05-14T21:54:40.432Z,5.25
2023-05-14T21:57:06.957Z,4.82
2023-05-14T21:59:33.601Z,5.32
2023-05-14T22:04:29.148Z,5.45
2023-05-14T22:06:55.813Z,5.85
2023-05-14T22:09:22.198Z,5.95
2023-05-14T22:11:48.594Z,5.32
2023-05-14T22:14:14.975Z,5.63
2023-05-14T22:16:41.405Z,6.00
2023-05-14T22:19:08.065Z,5.90
2023-05-14T22:21:34.508Z,6.25
2023-05-14T22:24:00.938Z,5.93
2023-05-14T22:26:27.338Z,6.10
2023-05-14T22:28:53.736Z,7.00
2023-05-14T22:31:20.161Z,5.88
2023-05-14T22:33:46.633Z,6.57
2023-05-14T22:36:13.091Z,6.70
2023-05-14T22:38:41.118Z,6.70
2023-05-14T22:41:07.505Z,6.40
2023-05-14T22:43:33.874Z,6.25
2023-05-14T22:46:00.450Z,7.15
2023-05-14T22:48:26.917Z,6.10
2023-05-14T22:50:53.328Z,6.60
2023-05-14T22:53:19.707Z,7.18
2023-05-14T22:55:46.133Z,7.28
2023-05-14T22:58:12.512Z,6.80
2023-05-14T23:00:38.833Z,7.47
2023-05-14T23:03:05.337Z,6.85
2023-05-14T23:05:31.676Z,6.72
2023-05-14T23:07:58.046Z,6.80
2023-05-14T23:10:24.543Z,6.75
2023-05-14T23:12:50.903Z,7.60
2023-05-14T23:15:17.225Z,7.13
2023-05-14T23:17:43.631Z,6.90
2023-05-14T23:20:13.427Z,6.88
2023-05-14T23:22:40.678Z,6.95
2023-05-14T23:25:07.695Z,6.38
2023-05-14T23:27:35.335Z,7.30
2023-05-14T23:30:03.120Z,8.10
2023-05-14T23:32:29.727Z,7.28
2023-05-14T23:34:56.145Z,8.20
2023-05-14T23:37:23.198Z,7.68
2023-05-14T23:39:49.832Z,7.38
2023-05-14T23:42:16.192Z,7.75
2023-05-14T23:44:42.609Z,7.68
2023-05-14T23:47:09.288Z,7.85
2023-05-14T23:49:35.863Z,8.00
2023-05-14T23:52:02.357Z,7.25
2023-05-14T23:54:28.773Z,7.72
2023-05-14T23:56:55.326Z,8.18
2023-05-14T23:59:22.358Z,8.45
